sensor_id;sensor_type;location;lat;lon;timestamp;temperature;humidity
63966;DHT22;50151;52.030;5.350;2023-03-29T08:05:56;9.00;99.90
63966;DHT22;50151;52.030;5.350;2023-03-29T08:08:23;9.00;99.90
63966;DHT22;50151;52.030;5.350;2023-03-29T08:10:50;9.10;99.90
63966;DHT22;50151;52.030;5.350;2023-03-29T08:13:17;9.10;99.90
63966;DHT22;50151;52.030;5.350;2023-03-29T08:15:44;9.20;99.90
63966;DHT22;50151;52.030;5.350;2023-03-29T08:18:12;9.20;99.90
63966;DHT22;50151;52.030;5.350;2023-03-29T08:20:40;9.20;99.90
63966;DHT22;50151;52.030;5.350;2023-03-29T08:23:06;9.20;99.90
63966;DHT22;50151;52.030;5.350;2023-03-29T08:25:33;9.20;99.90
63966;DHT22;50151;52.030;5.350;2023-03-29T08:28:00;9.30;99.90
63966;DHT22;50151;52.030;5.350;2023-03-29T08:30:27;9.30;99.90
63966;DHT22;50151;52.030;5.350;2023-03-29T08:32:54;9.40;99.90
63966;DHT22;50151;52.030;5.350;2023-03-29T08:35:21;9.40;99.90
63966;DHT22;50151;52.030;5.350;2023-03-29T08:37:48;9.50;99.90
63966;DHT22;50151;52.030;5.350;2023-03-29T08:40:19;9.50;99.90
63966;DHT22;50151;52.030;5.350;2023-03-29T08:43:23;9.50;99.90
63966;DHT22;50151;52.030;5.350;2023-03-29T08:46:02;9.60;99.90
63966;DHT22;50151;52.030;5.350;2023-03-29T08:48:38;9.70;99.90
63966;DHT22;50151;52.030;5.350;2023-03-29T08:51:26;9.80;99.90
63966;DHT22;50151;52.030;5.350;2023-03-29T08:54:03;9.80;99.90
63966;DHT22;50151;52.030;5.350;2023-03-29T08:56:33;9.80;99.90
63966;DHT22;50151;52.030;5.350;2023-03-29T08:59:00;9.90;99.90
63966;DHT22;50151;52.030;5.350;2023-03-29T09:01:32;9.90;99.90
63966;DHT22;50151;52.030;5.350;2023-03-29T09:04:07;9.90;99.90
63966;DHT22;50151;52.030;5.350;2023-03-29T09:06:34;10.00;99.90
63966;DHT22;50151;52.030;5.350;2023-03-29T09:09:01;10.00;99.90
63966;DHT22;50151;52.030;5.350;2023-03-29T09:11:49;9.90;99.90
63966;DHT22;50151;52.030;5.350;2023-03-29T09:19:50;10.00;99.90
63966;DHT22;50151;52.030;5.350;2023-03-29T09:22:39;10.10;99.90
63966;DHT22;50151;52.030;5.350;2023-03-29T09:25:21;10.10;99.90
63966;DHT22;50151;52.030;5.350;2023-03-29T09:28:03;10.20;99.90
63966;DHT22;50151;52.030;5.350;2023-03-29T09:33:41;10.30;99.90
63966;DHT22;50151;52.030;5.350;2023-03-29T09:36:23;10.40;99.90
63966;DHT22;50151;52.030;5.350;2023-03-29T09:38:51;10.40;99.90
63966;DHT22;50151;52.030;5.350;2023-03-29T09:43:53;10.40;99.90
63966;DHT22;50151;52.030;5.350;2023-03-29T09:46:35;10.40;99.90
63966;DHT22;50151;52.030;5.350;2023-03-29T09:49:08;10.50;99.90
63966;DHT22;50151;52.030;5.350;2023-03-29T09:51:39;10.50;99.90
63966;DHT22;50151;52.030;5.350;2023-03-29T09:54:09;10.70;99.90
63966;DHT22;50151;52.030;5.350;2023-03-29T09:56:38;10.70;99.90
63966;DHT22;50151;52.030;5.350;2023-03-29T09:59:06;10.70;99.90
63966;DHT22;50151;52.030;5.350;2023-03-29T10:01:37;10.90;99.90
63966;DHT22;50151;52.030;5.350;2023-03-29T10:04:07;11.00;99.90
63966;DHT22;50151;52.030;5.350;2023-03-29T10:06:35;11.00;99.90
63966;DHT22;50151;52.030;5.350;2023-03-29T10:09:03;11.00;99.90
63966;DHT22;50151;52.030;5.350;2023-03-29T10:11:34;11.00;99.90
63966;DHT22;50151;52.030;5.350;2023-03-29T10:14:30;11.00;99.90
63966;DHT22;50151;52.030;5.350;2023-03-29T10:16:58;11.10;99.90
63966;DHT22;50151;52.030;5.350;2023-03-29T10:19:34;11.00;99.90
63966;DHT22;50151;52.030;5.350;2023-03-29T10:22:07;11.00;99.90
63966;DHT22;50151;52.030;5.350;2023-03-29T10:24:39;11.00;99.90
63966;DHT22;50151;52.030;5.350;2023-03-29T10:27:09;10.80;99.90
63966;DHT22;50151;52.030;5.350;2023-03-29T10:29:42;10.80;99.90
63966;DHT22;50151;52.030;5.350;2023-03-29T10:32:21;11.00;99.90
63966;DHT22;50151;52.030;5.350;2023-03-29T10:34:49;10.90;99.90
63966;DHT22;50151;52.030;5.350;2023-03-29T10:37:18;11.00;99.90
63966;DHT22;50151;52.030;5.350;2023-03-29T10:39:47;11.00;99.90
63966;DHT22;50151;52.030;5.350;2023-03-29T10:42:16;11.30;99.90
63966;DHT22;50151;52.030;5.350;2023-03-29T10:44:53;11.30;99.90
63966;DHT22;50151;52.030;5.350;2023-03-29T10:47:20;11.20;99.90
63966;DHT22;50151;52.030;5.350;2023-03-29T10:49:56;11.10;99.90
63966;DHT22;50151;52.030;5.350;2023-03-29T10:52:24;11.10;99.90
63966;DHT22;50151;52.030;5.350;2023-03-29T10:54:53;11.10;99.90
63966;DHT22;50151;52.030;5.350;2023-03-29T11:00:34;11.30;99.90
63966;DHT22;50151;52.030;5.350;2023-03-29T11:03:38;11.20;99.90
63966;DHT22;50151;52.030;5.350;2023-03-29T11:09:44;11.30;99.90
63966;DHT22;50151;52.030;5.350;2023-03-29T11:18:19;11.30;99.90
63966;DHT22;50151;52.030;5.350;2023-03-29T11:28:53;11.40;99.90
63966;DHT22;50151;52.030;5.350;2023-03-29T11:42:20;11.60;99.90
63966;DHT22;50151;52.030;5.350;2023-03-29T11:44:51;11.60;99.90
63966;DHT22;50151;52.030;5.350;2023-03-29T11:47:21;11.70;99.90
63966;DHT22;50151;52.030;5.350;2023-03-29T11:49:56;11.80;99.90
63966;DHT22;50151;52.030;5.350;2023-03-29T11:52:31;11.90;99.90
63966;DHT22;50151;52.030;5.350;2023-03-29T11:57:35;11.80;99.90
63966;DHT22;50151;52.030;5.350;2023-03-29T12:00:26;11.80;99.90
63966;DHT22;50151;52.030;5.350;2023-03-29T12:06:04;11.90;99.90
63966;DHT22;50151;52.030;5.350;2023-03-29T12:08:45;11.80;99.90
63966;DHT22;50151;52.030;5.350;2023-03-29T12:11:22;11.80;99.90
63966;DHT22;50151;52.030;5.350;2023-03-29T12:14:04;11.80;99.90
63966;DHT22;50151;52.030;5.350;2023-03-29T12:16:38;11.80;99.90
63966;DHT22;50151;52.030;5.350;2023-03-29T12:19:30;11.70;99.90
63966;DHT22;50151;52.030;5.350;2023-03-29T12:21:58;11.70;99.90
63966;DHT22;50151;52.030;5.350;2023-03-29T12:24:29;11.60;99.90
63966;DHT22;50151;52.030;5.350;2023-03-29T12:35:39;11.60;99.90
63966;DHT22;50151;52.030;5.350;2023-03-29T12:38:22;11.70;99.90
63966;DHT22;50151;52.030;5.350;2023-03-29T12:40:57;11.80;99.90
63966;DHT22;50151;52.030;5.350;2023-03-29T12:43:31;11.90;99.90
63966;DHT22;50151;52.030;5.350;2023-03-29T12:46:07;12.00;99.90
63966;DHT22;50151;52.030;5.350;2023-03-29T12:48:37;12.00;99.90
63966;DHT22;50151;52.030;5.350;2023-03-29T12:51:20;12.00;99.90
63966;DHT22;50151;52.030;5.350;2023-03-29T12:53:51;12.00;99.90
63966;DHT22;50151;52.030;5.350;2023-03-29T12:56:21;12.10;99.90
63966;DHT22;50151;52.030;5.350;2023-03-29T12:59:15;12.30;99.90
63966;DHT22;50151;52.030;5.350;2023-03-29T13:01:59;12.30;99.90
63966;DHT22;50151;52.030;5.350;2023-03-29T13:04:57;12.40;99.90
63966;DHT22;50151;52.030;5.350;2023-03-29T13:07:51;12.50;99.90
63966;DHT22;50151;52.030;5.350;2023-03-29T13:13:07;12.40;99.90
63966;DHT22;50151;52.030;5.350;2023-03-29T13:15:36;12.50;99.90
63966;DHT22;50151;52.030;5.350;2023-03-29T13:18:54;12.60;99.90
63966;DHT22;50151;52.030;5.350;2023-03-29T13:21:15;12.70;99.90
63966;DHT22;50151;52.030;5.350;2023-03-29T13:23:58;12.80;99.90
63966;DHT22;50151;52.030;5.350;2023-03-29T13:26:48;12.80;99.90
63966;DHT22;50151;52.030;5.350;2023-03-29T13:43:01;13.10;99.90
63966;DHT22;50151;52.030;5.350;2023-03-29T13:45:35;13.20;99.90
63966;DHT22;50151;52.030;5.350;2023-03-29T13:48:17;13.20;99.90
63966;DHT22;50151;52.030;5.350;2023-03-29T13:50:55;13.20;99.90
63966;DHT22;50151;52.030;5.350;2023-03-29T13:53:34;13.40;99.90
63966;DHT22;50151;52.030;5.350;2023-03-29T13:56:05;13.40;99.90
63966;DHT22;50151;52.030;5.350;2023-03-29T13:58:43;13.50;99.90
63966;DHT22;50151;52.030;5.350;2023-03-29T14:01:26;13.60;99.90
63966;DHT22;50151;52.030;5.350;2023-03-29T14:03:55;13.50;99.90
63966;DHT22;50151;52.030;5.350;2023-03-29T14:06:29;13.60;99.90
63966;DHT22;50151;52.030;5.350;2023-03-29T14:08:57;13.70;99.90
63966;DHT22;50151;52.030;5.350;2023-03-29T14:11:28;13.80;99.90
63966;DHT22;50151;52.030;5.350;2023-03-29T14:13:57;13.80;99.90
63966;DHT22;50151;52.030;5.350;2023-03-29T14:16:30;13.90;99.90
63966;DHT22;50151;52.030;5.350;2023-03-29T14:19:02;13.80;99.90
63966;DHT22;50151;52.030;5.350;2023-03-29T14:21:29;13.90;99.90
63966;DHT22;50151;52.030;5.350;2023-03-29T14:24:00;13.90;99.90
63966;DHT22;50151;52.030;5.350;2023-03-29T14:26:32;13.90;99.90
63966;DHT22;50151;52.030;5.350;2023-03-29T14:29:01;14.00;99.90
63966;DHT22;50151;52.030;5.350;2023-03-29T14:31:32;14.20;99.90
63966;DHT22;50151;52.030;5.350;2023-03-29T14:34:03;14.20;99.90
63966;DHT22;50151;52.030;5.350;2023-03-29T14:36:33;14.30;99.90
63966;DHT22;50151;52.030;5.350;2023-03-29T14:39:03;14.40;99.90
63966;DHT22;50151;52.030;5.350;2023-03-29T14:41:34;14.40;99.90
63966;DHT22;50151;52.030;5.350;2023-03-29T14:44:02;14.40;99.90
63966;DHT22;50151;52.030;5.350;2023-03-29T14:46:30;14.50;99.90
63966;DHT22;50151;52.030;5.350;2023-03-29T14:49:00;14.60;99.90
63966;DHT22;50151;52.030;5.350;2023-03-29T14:51:28;14.70;99.90
63966;DHT22;50151;52.030;5.350;2023-03-29T14:53:58;14.70;99.90
63966;DHT22;50151;52.030;5.350;2023-03-29T14:56:26;14.60;99.90
63966;DHT22;50151;52.030;5.350;2023-03-29T14:58:54;14.60;99.90
63966;DHT22;50151;52.030;5.350;2023-03-29T15:01:24;14.60;99.90
63966;DHT22;50151;52.030;5.350;2023-03-29T15:04:09;14.70;99.90
63966;DHT22;50151;52.030;5.350;2023-03-29T15:06:38;14.70;99.90
63966;DHT22;50151;52.030;5.350;2023-03-29T15:09:10;14.70;99.90
63966;DHT22;50151;52.030;5.350;2023-03-29T15:11:40;14.70;99.90
63966;DHT22;50151;52.030;5.350;2023-03-29T15:14:13;14.80;99.90
63966;DHT22;50151;52.030;5.350;2023-03-29T15:16:42;14.80;99.90
63966;DHT22;50151;52.030;5.350;2023-03-29T15:19:18;14.70;99.90
63966;DHT22;50151;52.030;5.350;2023-03-29T15:21:50;14.70;99.90
63966;DHT22;50151;52.030;5.350;2023-03-29T15:27:18;14.70;99.90
63966;DHT22;50151;52.030;5.350;2023-03-29T15:29:45;14.70;99.90
63966;DHT22;50151;52.030;5.350;2023-03-29T15:32:32;14.70;99.90
63966;DHT22;50151;52.030;5.350;2023-03-29T15:35:05;14.70;99.90
63966;DHT22;50151;52.030;5.350;2023-03-29T15:37:33;14.70;99.90
63966;DHT22;50151;52.030;5.350;2023-03-29T15:40:00;14.70;99.90
63966;DHT22;50151;52.030;5.350;2023-03-29T15:42:35;14.70;99.90
63966;DHT22;50151;52.030;5.350;2023-03-29T15:45:03;14.70;99.90
63966;DHT22;50151;52.030;5.350;2023-03-29T15:47:33;14.70;99.90
63966;DHT22;50151;52.030;5.350;2023-03-29T15:50:00;14.60;99.90
63966;DHT22;50151;52.030;5.350;2023-03-29T15:52:26;14.60;99.90
63966;DHT22;50151;52.030;5.350;2023-03-29T15:54:53;14.60;99.90
63966;DHT22;50151;52.030;5.350;2023-03-29T15:57:20;14.60;99.90
63966;DHT22;50151;52.030;5.350;2023-03-29T15:59:47;14.60;99.90
63966;DHT22;50151;52.030;5.350;2023-03-29T16:02:15;14.60;99.90
63966;DHT22;50151;52.030;5.350;2023-03-29T16:04:42;14.60;99.90
63966;DHT22;50151;52.030;5.350;2023-03-29T16:07:13;14.60;99.90
63966;DHT22;50151;52.030;5.350;2023-03-29T16:09:40;14.50;99.90
63966;DHT22;50151;52.030;5.350;2023-03-29T16:12:08;14.50;99.90
63966;DHT22;50151;52.030;5.350;2023-03-29T16:14:36;14.50;99.90
63966;DHT22;50151;52.030;5.350;2023-03-29T16:17:03;14.50;99.90
63966;DHT22;50151;52.030;5.350;2023-03-29T16:19:31;14.40;99.90
63966;DHT22;50151;52.030;5.350;2023-03-29T16:21:59;14.50;99.90
63966;DHT22;50151;52.030;5.350;2023-03-29T16:24:29;14.40;99.90
63966;DHT22;50151;52.030;5.350;2023-03-29T16:27:00;14.40;99.90
63966;DHT22;50151;52.030;5.350;2023-03-29T16:29:38;14.40;99.90
63966;DHT22;50151;52.030;5.350;2023-03-29T16:32:10;14.40;99.90
63966;DHT22;50151;52.030;5.350;2023-03-29T16:34:37;14.30;99.90
63966;DHT22;50151;52.030;5.350;2023-03-29T16:37:04;14.30;99.90
63966;DHT22;50151;52.030;5.350;2023-03-29T16:39:31;14.30;99.90
63966;DHT22;50151;52.030;5.350;2023-03-29T16:42:04;14.20;99.90
63966;DHT22;50151;52.030;5.350;2023-03-29T16:44:32;14.30;99.90
63966;DHT22;50151;52.030;5.350;2023-03-29T16:47:05;14.20;99.90
63966;DHT22;50151;52.030;5.350;2023-03-29T16:49:35;14.10;99.90
63966;DHT22;50151;52.030;5.350;2023-03-29T16:52:05;14.10;99.90
63966;DHT22;50151;52.030;5.350;2023-03-29T16:54:37;14.10;99.90
63966;DHT22;50151;52.030;5.350;2023-03-29T16:57:08;14.10;99.90
63966;DHT22;50151;52.030;5.350;2023-03-29T16:59:36;14.10;99.90
63966;DHT22;50151;52.030;5.350;2023-03-29T17:02:03;14.10;99.90
63966;DHT22;50151;52.030;5.350;2023-03-29T17:04:29;14.10;99.90
63966;DHT22;50151;52.030;5.350;2023-03-29T17:06:57;14.10;99.90
63966;DHT22;50151;52.030;5.350;2023-03-29T17:09:26;14.10;99.90
63966;DHT22;50151;52.030;5.350;2023-03-29T17:11:55;14.10;99.90
63966;DHT22;50151;52.030;5.350;2023-03-29T17:14:22;14.10;99.90
63966;DHT22;50151;52.030;5.350;2023-03-29T17:16:52;14.00;99.90
63966;DHT22;50151;52.030;5.350;2023-03-29T17:19:18;14.00;99.90
63966;DHT22;50151;52.030;5.350;2023-03-29T17:21:45;14.00;99.90
63966;DHT22;50151;52.030;5.350;2023-03-29T17:24:12;14.00;99.90
63966;DHT22;50151;52.030;5.350;2023-03-29T17:26:38;14.00;99.90
63966;DHT22;50151;52.030;5.350;2023-03-29T17:29:05;14.00;99.90
63966;DHT22;50151;52.030;5.350;2023-03-29T17:31:32;13.90;99.90
63966;DHT22;50151;52.030;5.350;2023-03-29T17:34:00;13.90;99.90
63966;DHT22;50151;52.030;5.350;2023-03-29T17:36:27;13.90;99.90
63966;DHT22;50151;52.030;5.350;2023-03-29T17:38:54;13.90;99.90
63966;DHT22;50151;52.030;5.350;2023-03-29T17:41:21;13.90;99.90
63966;DHT22;50151;52.030;5.350;2023-03-29T17:43:48;13.80;99.90
63966;DHT22;50151;52.030;5.350;2023-03-29T17:46:16;13.80;99.90
63966;DHT22;50151;52.030;5.350;2023-03-29T17:48:49;13.80;99.90
63966;DHT22;50151;52.030;5.350;2023-03-29T17:51:17;13.80;99.90
63966;DHT22;50151;52.030;5.350;2023-03-29T17:53:45;13.70;99.90
63966;DHT22;50151;52.030;5.350;2023-03-29T17:56:12;13.70;99.90
63966;DHT22;50151;52.030;5.350;2023-03-29T17:58:39;13.70;99.90
63966;DHT22;50151;52.030;5.350;2023-03-29T18:01:10;13.60;99.90
63966;DHT22;50151;52.030;5.350;2023-03-29T18:03:39;13.60;99.90
63966;DHT22;50151;52.030;5.350;2023-03-29T18:06:06;13.60;99.90
63966;DHT22;50151;52.030;5.350;2023-03-29T18:08:33;13.60;99.90
63966;DHT22;50151;52.030;5.350;2023-03-29T18:11:09;13.50;99.90
63966;DHT22;50151;52.030;5.350;2023-03-29T18:13:37;13.50;99.90
63966;DHT22;50151;52.030;5.350;2023-03-29T18:16:06;13.50;99.90
63966;DHT22;50151;52.030;5.350;2023-03-29T18:18:33;13.50;99.90
63966;DHT22;50151;52.030;5.350;2023-03-29T18:21:01;13.40;99.90
63966;DHT22;50151;52.030;5.350;2023-03-29T18:23:27;13.30;99.90
63966;DHT22;50151;52.030;5.350;2023-03-29T18:25:58;13.30;99.90
63966;DHT22;50151;52.030;5.350;2023-03-29T18:28:27;13.20;99.90
63966;DHT22;50151;52.030;5.350;2023-03-29T18:30:54;13.20;99.90
63966;DHT22;50151;52.030;5.350;2023-03-29T18:33:20;13.20;99.90
63966;DHT22;50151;52.030;5.350;2023-03-29T18:35:47;13.10;99.90
63966;DHT22;50151;52.030;5.350;2023-03-29T18:38:17;13.10;99.90
63966;DHT22;50151;52.030;5.350;2023-03-29T18:40:48;13.00;99.90
63966;DHT22;50151;52.030;5.350;2023-03-29T18:43:15;12.90;99.90
63966;DHT22;50151;52.030;5.350;2023-03-29T18:45:43;12.90;99.90
63966;DHT22;50151;52.030;5.350;2023-03-29T18:48:09;12.90;99.90
63966;DHT22;50151;52.030;5.350;2023-03-29T18:50:36;12.80;99.90
63966;DHT22;50151;52.030;5.350;2023-03-29T18:53:04;12.80;99.90
63966;DHT22;50151;52.030;5.350;2023-03-29T18:55:30;12.80;99.90
63966;DHT22;50151;52.030;5.350;2023-03-29T18:57:57;12.80;99.90
63966;DHT22;50151;52.030;5.350;2023-03-29T19:00:24;12.80;99.90
63966;DHT22;50151;52.030;5.350;2023-03-29T19:02:50;12.80;99.90
63966;DHT22;50151;52.030;5.350;2023-03-29T19:05:17;12.70;99.90
63966;DHT22;50151;52.030;5.350;2023-03-29T19:07:44;12.70;99.90
63966;DHT22;50151;52.030;5.350;2023-03-29T19:10:11;12.70;99.90
63966;DHT22;50151;52.030;5.350;2023-03-29T19:12:38;12.70;99.90
63966;DHT22;50151;52.030;5.350;2023-03-29T19:15:05;12.60;99.90
63966;DHT22;50151;52.030;5.350;2023-03-29T19:17:32;12.50;99.90
63966;DHT22;50151;52.030;5.350;2023-03-29T19:19:59;12.50;99.90
63966;DHT22;50151;52.030;5.350;2023-03-29T19:22:26;12.40;99.90
63966;DHT22;50151;52.030;5.350;2023-03-29T19:24:53;12.40;99.90
63966;DHT22;50151;52.030;5.350;2023-03-29T19:27:20;12.40;99.90
63966;DHT22;50151;52.030;5.350;2023-03-29T19:29:47;12.40;99.90
63966;DHT22;50151;52.030;5.350;2023-03-29T19:32:14;12.40;99.90
63966;DHT22;50151;52.030;5.350;2023-03-29T19:34:40;12.40;99.90
63966;DHT22;50151;52.030;5.350;2023-03-29T19:37:07;12.40;99.90
63966;DHT22;50151;52.030;5.350;2023-03-29T19:39:34;12.30;99.90
63966;DHT22;50151;52.030;5.350;2023-03-29T19:42:01;12.40;99.90
63966;DHT22;50151;52.030;5.350;2023-03-29T19:44:27;12.30;99.90
63966;DHT22;50151;52.030;5.350;2023-03-29T19:46:55;12.40;99.90
63966;DHT22;50151;52.030;5.350;2023-03-29T19:49:22;12.30;99.90
63966;DHT22;50151;52.030;5.350;2023-03-29T19:51:49;12.40;99.90
63966;DHT22;50151;52.030;5.350;2023-03-29T19:54:20;12.30;99.90
63966;DHT22;50151;52.030;5.350;2023-03-29T19:56:47;12.30;99.90
63966;DHT22;50151;52.030;5.350;2023-03-29T19:59:16;12.30;99.90
63966;DHT22;50151;52.030;5.350;2023-03-29T20:01:43;12.30;99.90
63966;DHT22;50151;52.030;5.350;2023-03-29T20:04:20;12.30;99.90
63966;DHT22;50151;52.030;5.350;2023-03-29T20:06:48;12.30;99.90
63966;DHT22;50151;52.030;5.350;2023-03-29T20:09:15;12.30;99.90
63966;DHT22;50151;52.030;5.350;2023-03-29T20:11:42;12.30;99.90
63966;DHT22;50151;52.030;5.350;2023-03-29T20:14:15;12.30;99.90
63966;DHT22;50151;52.030;5.350;2023-03-29T20:16:41;12.30;99.90
63966;DHT22;50151;52.030;5.350;2023-03-29T20:19:09;12.30;99.90
63966;DHT22;50151;52.030;5.350;2023-03-29T20:21:39;12.30;99.90
63966;DHT22;50151;52.030;5.350;2023-03-29T20:24:06;12.30;99.90
63966;DHT22;50151;52.030;5.350;2023-03-29T20:26:34;12.30;99.90
63966;DHT22;50151;52.030;5.350;2023-03-29T20:29:01;12.30;99.90
63966;DHT22;50151;52.030;5.350;2023-03-29T20:31:28;12.30;99.90
63966;DHT22;50151;52.030;5.350;2023-03-29T20:33:55;12.20;99.90
63966;DHT22;50151;52.030;5.350;2023-03-29T20:36:23;12.20;99.90
63966;DHT22;50151;52.030;5.350;2023-03-29T20:38:51;12.20;99.90
63966;DHT22;50151;52.030;5.350;2023-03-29T20:41:20;12.20;99.90
63966;DHT22;50151;52.030;5.350;2023-03-29T20:43:48;12.20;99.90
63966;DHT22;50151;52.030;5.350;2023-03-29T20:46:25;12.20;99.90
63966;DHT22;50151;52.030;5.350;2023-03-29T20:49:03;12.20;99.90
63966;DHT22;50151;52.030;5.350;2023-03-29T20:51:30;12.20;99.90
63966;DHT22;50151;52.030;5.350;2023-03-29T20:53:58;12.20;99.90
63966;DHT22;50151;52.030;5.350;2023-03-29T20:56:34;12.30;99.90
63966;DHT22;50151;52.030;5.350;2023-03-29T20:59:03;12.20;99.90
63966;DHT22;50151;52.030;5.350;2023-03-29T21:01:32;12.20;99.90
63966;DHT22;50151;52.030;5.350;2023-03-29T21:04:00;12.20;99.90
63966;DHT22;50151;52.030;5.350;2023-03-29T21:06:28;12.20;99.90
63966;DHT22;50151;52.030;5.350;2023-03-29T21:08:55;12.20;99.90
63966;DHT22;50151;52.030;5.350;2023-03-29T21:11:22;12.20;99.90
63966;DHT22;50151;52.030;5.350;2023-03-29T21:13:49;12.20;99.90
63966;DHT22;50151;52.030;5.350;2023-03-29T21:16:18;12.20;99.90
63966;DHT22;50151;52.030;5.350;2023-03-29T21:18:46;12.20;99.90
63966;DHT22;50151;52.030;5.350;2023-03-29T21:21:12;12.20;99.90
63966;DHT22;50151;52.030;5.350;2023-03-29T21:23:39;12.10;99.90
63966;DHT22;50151;52.030;5.350;2023-03-29T21:26:06;12.10;99.90
63966;DHT22;50151;52.030;5.350;2023-03-29T21:28:33;12.10;99.90
63966;DHT22;50151;52.030;5.350;2023-03-29T21:31:04;12.20;99.90
63966;DHT22;50151;52.030;5.350;2023-03-29T22:21:04;12.20;99.90
63966;DHT22;50151;52.030;5.350;2023-03-29T22:23:31;12.20;99.90
63966;DHT22;50151;52.030;5.350;2023-03-29T22:26:04;12.30;99.90
63966;DHT22;50151;52.030;5.350;2023-03-29T22:28:31;12.30;99.90
63966;DHT22;50151;52.030;5.350;2023-03-29T22:31:03;12.20;99.90
63966;DHT22;50151;52.030;5.350;2023-03-29T22:33:32;12.20;99.90
63966;DHT22;50151;52.030;5.350;2023-03-29T22:35:59;12.20;99.90
63966;DHT22;50151;52.030;5.350;2023-03-29T22:38:27;12.30;99.90
63966;DHT22;50151;52.030;5.350;2023-03-29T22:40:54;12.20;99.90
63966;DHT22;50151;52.030;5.350;2023-03-29T22:43:21;12.30;99.90
63966;DHT22;50151;52.030;5.350;2023-03-29T22:45:48;12.30;99.90
63966;DHT22;50151;52.030;5.350;2023-03-29T22:48:14;12.30;99.90
63966;DHT22;50151;52.030;5.350;2023-03-29T22:50:42;12.30;99.90
63966;DHT22;50151;52.030;5.350;2023-03-29T22:53:10;12.20;99.90
63966;DHT22;50151;52.030;5.350;2023-03-29T22:55:37;12.30;99.90
63966;DHT22;50151;52.030;5.350;2023-03-29T22:58:04;12.20;99.90
63966;DHT22;50151;52.030;5.350;2023-03-29T23:00:31;12.30;99.90
63966;DHT22;50151;52.030;5.350;2023-03-29T23:02:58;12.30;99.90
63966;DHT22;50151;52.030;5.350;2023-03-29T23:05:24;12.30;99.90
63966;DHT22;50151;52.030;5.350;2023-03-29T23:07:51;12.30;99.90
63966;DHT22;50151;52.030;5.350;2023-03-29T23:10:18;12.30;99.90
63966;DHT22;50151;52.030;5.350;2023-03-29T23:12:45;12.40;99.90
63966;DHT22;50151;52.030;5.350;2023-03-29T23:15:12;12.40;99.90
63966;DHT22;50151;52.030;5.350;2023-03-29T23:17:39;12.40;99.90
63966;DHT22;50151;52.030;5.350;2023-03-29T23:20:06;12.40;99.90
63966;DHT22;50151;52.030;5.350;2023-03-29T23:22:34;12.40;99.90
63966;DHT22;50151;52.030;5.350;2023-03-29T23:25:02;12.40;99.90
63966;DHT22;50151;52.030;5.350;2023-03-29T23:27:28;12.40;99.90
63966;DHT22;50151;52.030;5.350;2023-03-29T23:29:55;12.40;99.90
63966;DHT22;50151;52.030;5.350;2023-03-29T23:32:22;12.40;99.90
63966;DHT22;50151;52.030;5.350;2023-03-29T23:34:48;12.40;99.90
63966;DHT22;50151;52.030;5.350;2023-03-29T23:37:15;12.40;99.90
63966;DHT22;50151;52.030;5.350;2023-03-29T23:39:42;12.40;99.90
63966;DHT22;50151;52.030;5.350;2023-03-29T23:42:08;12.40;99.90
63966;DHT22;50151;52.030;5.350;2023-03-29T23:44:36;12.30;99.90
63966;DHT22;50151;52.030;5.350;2023-03-29T23:47:03;12.40;99.90
63966;DHT22;50151;52.030;5.350;2023-03-29T23:49:29;12.40;99.90
63966;DHT22;50151;52.030;5.350;2023-03-29T23:51:57;12.40;99.90
63966;DHT22;50151;52.030;5.350;2023-03-29T23:54:25;12.30;99.90
63966;DHT22;50151;52.030;5.350;2023-03-29T23:56:53;12.30;99.90
63966;DHT22;50151;52.030;5.350;2023-03-29T23:59:19;12.40;99.90
